Time;durP1;ratioP1;P1;durP2;ratioP2;P2;SDS_P1;SDS_P2;PMS_P1;PMS_P2;Temp;Humidity;BMP_temperature;BMP_pressure;BME280_temperature;BME280_humidity;BME280_pressure;Samples;Min_cycle;Max_cycle;Signal;HPM_P1;HPM_P2
2023/09/16 00:00:09;;;;;;;13.10;8.75;;;15.40;99.90;;;15.23;100.00;97107.19;5011922;28;20037;-37
2023/09/16 00:02:36;;;;;;;10.88;8.82;;;15.40;99.90;;;15.21;100.00;97113.56;5010511;28;20022;-37
2023/09/16 00:05:03;;;;;;;11.95;8.88;;;15.40;99.90;;;15.18;100.00;97119.03;5011096;28;20508;-38
2023/09/16 00:07:29;;;;;;;11.10;8.80;;;15.30;99.90;;;15.06;100.00;97094.94;5012388;28;20180;-38
2023/09/16 00:09:56;;;;;;;11.25;9.18;;;15.30;99.90;;;15.15;100.00;97119.25;4991389;28;20030;-38
2023/09/16 00:12:26;;;;;;;11.40;9.07;;;15.30;99.90;;;15.14;100.00;97113.06;5003827;28;20040;-41
2023/09/16 00:14:51;;;;;;;12.30;9.70;;;15.30;99.90;;;15.10;100.00;97116.00;5005110;28;20041;-38
2023/09/16 00:17:17;;;;;;;11.57;9.05;;;15.30;99.90;;;15.08;100.00;97110.78;5012943;28;20044;-38
2023/09/16 00:19:43;;;;;;;11.55;8.82;;;15.20;99.90;;;15.05;100.00;97121.59;5010952;28;20083;-38
2023/09/16 00:22:10;;;;;;;10.35;8.75;;;15.20;99.90;;;14.92;100.00;97102.88;5010562;28;20026;-39
2023/09/16 00:24:36;;;;;;;14.48;10.07;;;15.20;99.90;;;14.99;100.00;97111.34;5002711;28;20570;-38
2023/09/16 00:27:03;;;;;;;12.10;9.43;;;15.10;99.90;;;14.95;100.00;97123.94;5016412;28;20087;-37
2023/09/16 00:29:29;;;;;;;10.00;8.13;;;15.10;99.90;;;14.83;100.00;97101.63;5010332;28;20985;-38
2023/09/16 00:31:55;;;;;;;10.68;8.30;;;15.10;99.90;;;14.85;100.00;97120.13;5012945;28;20415;-38
2023/09/16 00:34:20;;;;;;;10.52;8.43;;;15.00;99.90;;;14.80;100.00;97114.22;5014350;28;20030;-39
2023/09/16 00:36:47;;;;;;;10.43;7.78;;;15.00;99.90;;;14.75;100.00;97111.84;5012610;28;20057;-39
2023/09/16 00:39:13;;;;;;;9.23;7.70;;;14.90;99.90;;;14.75;100.00;97113.63;5014497;28;20064;-38
2023/09/16 00:41:39;;;;;;;11.27;8.82;;;14.90;99.90;;;14.70;100.00;97103.28;5005616;28;20644;-38
2023/09/16 00:44:05;;;;;;;10.60;8.68;;;14.90;99.90;;;14.65;100.00;97103.53;5011032;28;20029;-37
2023/09/16 00:46:31;;;;;;;11.75;9.10;;;14.90;99.90;;;14.68;100.00;97105.19;5008941;28;20107;-38
2023/09/16 00:48:57;;;;;;;11.50;8.48;;;14.80;99.90;;;14.65;100.00;97111.50;5014543;28;20032;-40
2023/09/16 00:51:23;;;;;;;11.10;8.45;;;14.80;99.90;;;14.63;100.00;97107.25;5013289;28;20120;-38
2023/09/16 00:53:50;;;;;;;12.55;9.60;;;14.80;99.90;;;14.62;100.00;97116.13;5007145;28;20544;-38
2023/09/16 00:56:16;;;;;;;10.63;8.60;;;14.80;99.90;;;14.50;100.00;97092.00;5013377;28;20113;-39
2023/09/16 00:58:42;;;;;;;9.93;8.50;;;14.80;99.90;;;14.59;100.00;97109.22;5013507;28;20049;-38
2023/09/16 01:01:09;;;;;;;10.98;9.07;;;14.80;99.90;;;14.61;100.00;97114.44;5012518;28;20032;-38
2023/09/16 01:03:36;;;;;;;10.02;8.35;;;14.80;99.90;;;14.61;100.00;97107.34;5007586;28;20025;-38
2023/09/16 01:06:04;;;;;;;12.00;9.32;;;14.80;99.90;;;14.61;100.00;97114.44;5011351;28;20029;-38
2023/09/16 01:08:32;;;;;;;12.68;9.43;;;14.80;99.90;;;14.58;100.00;97107.50;5012335;28;20408;-38
2023/09/16 01:10:58;;;;;;;12.55;9.75;;;14.80;99.90;;;14.60;100.00;97110.06;5009238;28;20040;-37
2023/09/16 01:13:24;;;;;;;12.27;9.57;;;14.80;99.90;;;14.60;100.00;97107.41;5011278;28;20446;-38
2023/09/16 01:16:26;;;;;;;12.15;9.43;;;14.80;99.90;;;14.58;100.00;97107.50;5009848;28;20045;-38
2023/09/16 01:18:58;;;;;;;11.10;9.15;;;14.80;99.90;;;14.48;100.00;97091.22;5010898;28;20033;-38
2023/09/16 01:21:24;;;;;;;11.88;9.48;;;14.80;99.90;;;14.56;100.00;97108.50;5010597;28;20029;-38
2023/09/16 01:24:15;;;;;;;10.70;9.55;;;14.70;99.90;;;14.57;100.00;97107.56;5010566;28;20069;-38
2023/09/16 01:26:41;;;;;;;11.73;9.80;;;14.70;99.90;;;14.58;100.00;97106.66;5011663;28;20116;-38
2023/09/16 01:29:07;;;;;;;14.55;10.30;;;14.80;99.90;;;14.59;100.00;97105.69;5011141;28;20036;-39
2023/09/16 01:31:32;;;;;;;13.55;10.05;;;14.80;99.90;;;14.58;100.00;97102.19;5006839;28;20513;-38
2023/09/16 01:34:02;;;;;;;11.85;9.95;;;14.70;99.90;;;14.55;100.00;97104.97;5010216;28;20055;-38
2023/09/16 01:36:30;;;;;;;14.43;10.18;;;14.70;99.90;;;14.53;100.00;97098.91;5012902;28;20041;-37
2023/09/16 01:39:03;;;;;;;13.80;10.60;;;14.70;99.90;;;14.46;100.00;97094.91;5008506;28;20034;-38
2023/09/16 01:41:29;;;;;;;11.13;9.70;;;14.70;99.90;;;14.49;100.00;97102.69;5004903;28;20029;-38
2023/09/16 01:43:55;;;;;;;12.50;10.10;;;14.70;99.90;;;14.47;100.00;97099.28;5006478;28;20040;-38
2023/09/16 01:46:21;;;;;;;13.77;10.15;;;14.70;99.90;;;14.46;100.00;97102.84;4999371;28;20030;-37
2023/09/16 01:48:47;;;;;;;13.82;10.23;;;14.60;99.90;;;14.44;100.00;97105.59;5012531;28;20037;-38
2023/09/16 01:51:13;;;;;;;14.90;10.57;;;14.60;99.90;;;14.42;100.00;97109.28;5013878;28;20468;-39
2023/09/16 01:53:39;;;;;;;12.45;11.02;;;14.60;99.90;;;14.43;100.00;97101.25;5008097;28;20456;-38
2023/09/16 01:56:05;;;;;;;13.32;9.82;;;14.60;99.90;;;14.43;100.00;97111.00;5000881;28;20045;-38
2023/09/16 01:58:31;;;;;;;14.02;10.63;;;14.60;99.90;;;14.42;100.00;97114.59;5007572;28;20041;-38
2023/09/16 02:00:57;;;;;;;12.73;10.55;;;14.60;99.90;;;14.40;100.00;97117.34;5004786;28;20694;-38
2023/09/16 02:03:22;;;;;;;14.48;10.23;;;14.60;99.90;;;14.40;100.00;97122.63;5003506;28;20489;-38
2023/09/16 02:05:48;;;;;;;14.57;11.20;;;14.60;99.90;;;14.38;100.00;97115.72;5005364;28;20041;-38
2023/09/16 02:08:14;;;;;;;14.50;10.65;;;14.60;99.90;;;14.36;100.00;97115.81;5004793;28;20064;-38
2023/09/16 02:10:39;;;;;;;13.00;10.52;;;14.60;99.90;;;14.35;100.00;97121.19;5004280;28;20222;-38
2023/09/16 02:13:05;;;;;;;15.18;10.55;;;14.50;99.90;;;14.31;100.00;97108.09;5006238;28;20021;-37
2023/09/16 02:15:31;;;;;;;16.10;10.45;;;14.50;99.90;;;14.30;100.00;97111.72;4992783;28;20096;-39
2023/09/16 02:17:57;;;;;;;13.18;10.30;;;14.50;99.90;;;14.28;100.00;97112.72;5004225;28;20334;-39
2023/09/16 02:20:22;;;;;;;13.07;10.57;;;14.50;99.90;;;14.17;100.00;97097.41;5010376;28;20033;-37
2023/09/16 02:22:49;;;;;;;12.52;9.93;;;14.50;99.90;;;14.25;100.00;97113.75;5009671;28;20037;-37
2023/09/16 02:25:15;;;;;;;12.85;10.35;;;14.50;99.90;;;14.24;100.00;97120.00;5010023;28;20440;-37
2023/09/16 02:27:41;;;;;;;13.38;10.98;;;14.50;99.90;;;14.24;100.00;97120.00;5010257;28;20041;-38
2023/09/16 02:30:07;;;;;;;13.68;11.07;;;14.40;99.90;;;14.18;100.00;97115.03;5009851;28;20049;-38
2023/09/16 02:32:33;;;;;;;13.43;9.85;;;14.40;99.90;;;14.23;100.00;97128.03;5009018;28;20038;-38
2023/09/16 02:34:58;;;;;;;15.02;11.00;;;14.50;99.90;;;14.22;100.00;97134.28;5005363;28;20041;-38
2023/09/16 02:37:24;;;;;;;13.25;10.45;;;14.40;99.90;;;14.19;100.00;97130.00;5006292;28;20083;-38
2023/09/16 02:39:50;;;;;;;14.70;10.85;;;14.40;99.90;;;14.08;100.00;97112.03;5005545;28;20513;-40
2023/09/16 02:42:15;;;;;;;13.77;9.70;;;14.40;99.90;;;14.16;100.00;97135.50;5009714;28;20372;-38
2023/09/16 02:44:41;;;;;;;14.07;11.27;;;14.40;99.90;;;14.14;100.00;97132.09;5008541;28;20034;-38
2023/09/16 02:47:07;;;;;;;13.82;10.45;;;14.40;99.90;;;14.12;100.00;97133.94;4999331;28;20025;-38
2023/09/16 02:49:33;;;;;;;12.82;9.20;;;14.30;99.90;;;14.06;100.00;97118.38;5005809;28;20159;-39
2023/09/16 02:51:58;;;;;;;14.75;11.15;;;14.30;99.90;;;14.11;100.00;97124.28;5011182;28;20030;-38
2023/09/16 02:54:24;;;;;;;13.38;10.70;;;14.30;99.90;;;14.03;100.00;97111.47;4987314;28;20072;-39
2023/09/16 02:56:51;;;;;;;13.32;10.45;;;14.30;99.90;;;14.10;100.00;97117.25;5015136;28;20374;-38
2023/09/16 02:59:17;;;;;;;12.80;10.75;;;14.30;99.90;;;14.10;100.00;97120.78;5013595;28;20026;-38
2023/09/16 03:01:42;;;;;;;13.23;10.45;;;14.30;99.90;;;14.09;100.00;97126.16;5028515;28;20421;-38
2023/09/16 03:04:08;;;;;;;13.90;10.35;;;14.30;99.90;;;14.09;100.00;97128.81;5016705;28;20021;-38
2023/09/16 03:06:34;;;;;;;13.63;10.98;;;14.30;99.90;;;14.09;100.00;97121.72;5012316;28;20401;-37
2023/09/16 03:08:59;;;;;;;16.92;11.38;;;14.30;99.90;;;14.09;100.00;97123.53;5009258;28;20037;-37
2023/09/16 03:11:25;;;;;;;13.23;10.88;;;14.30;99.90;;;14.09;100.00;97126.16;5008293;28;20034;-38
2023/09/16 03:13:51;;;;;;;16.48;11.68;;;14.30;99.90;;;14.01;100.00;97109.81;5004808;28;21485;-38
2023/09/16 03:16:22;;;;;;;16.05;11.15;;;14.30;99.90;;;14.07;100.00;97113.00;5012332;28;20041;-37
2023/09/16 03:18:50;;;;;;;14.38;11.07;;;14.30;99.90;;;14.08;100.00;97111.19;5013885;28;20029;-38
2023/09/16 03:21:18;;;;;;;13.70;10.55;;;14.30;99.90;;;14.02;100.00;97101.78;5017188;28;20099;-38
2023/09/16 03:23:45;;;;;;;12.93;9.82;;;14.30;99.90;;;14.07;100.00;97109.50;5010783;28;20034;-38
2023/09/16 03:26:12;;;;;;;14.30;10.60;;;14.30;99.90;;;14.04;100.00;97109.66;5012161;28;21065;-38
2023/09/16 03:28:47;;;;;;;14.43;11.05;;;14.30;99.90;;;14.06;100.00;97105.13;5012594;28;20477;-38
2023/09/16 03:31:13;;;;;;;13.45;10.77;;;14.30;99.90;;;14.07;100.00;97110.34;5009186;28;20459;-37
2023/09/16 03:33:39;;;;;;;13.77;11.60;;;14.30;99.90;;;14.10;100.00;97110.19;5014010;28;20040;-38
2023/09/16 03:36:05;;;;;;;15.15;11.70;;;14.30;99.90;;;14.11;100.00;97111.03;5013510;28;20038;-38
2023/09/16 03:38:33;;;;;;;15.40;11.32;;;14.30;99.90;;;14.10;100.00;97107.53;5011563;28;20103;-39
2023/09/16 03:40:59;;;;;;;14.27;11.13;;;14.30;99.90;;;14.09;100.00;97103.16;5009078;28;20033;-38
2023/09/16 03:43:26;;;;;;;15.00;11.15;;;14.30;99.90;;;14.00;100.00;97092.19;5012373;28;20021;-38
2023/09/16 03:45:52;;;;;;;15.55;11.27;;;14.30;99.90;;;14.09;100.00;97099.66;5007920;28;20373;-38
2023/09/16 03:48:17;;;;;;;15.75;12.18;;;14.30;99.90;;;14.05;100.00;97090.13;5011172;28;20500;-38
2023/09/16 03:50:43;;;;;;;15.65;11.27;;;14.30;99.90;;;14.08;100.00;97096.13;5001875;28;20144;-38
2023/09/16 03:53:09;;;;;;;14.93;11.27;;;14.30;99.90;;;14.06;100.00;97098.00;5005088;28;20112;-37
2023/09/16 03:55:35;;;;;;;18.15;12.02;;;14.30;99.90;;;14.09;100.00;97099.66;5008016;28;20080;-37
2023/09/16 03:58:02;;;;;;;15.52;11.43;;;14.30;99.90;;;14.09;100.00;97089.03;5006644;28;20116;-39
2023/09/16 04:00:28;;;;;;;14.98;12.50;;;14.30;99.90;;;14.08;100.00;97089.97;5011587;28;20256;-37
2023/09/16 04:02:54;;;;;;;15.32;11.60;;;14.30;99.90;;;14.10;100.00;97090.75;5009985;28;20563;-38
2023/09/16 04:05:20;;;;;;;16.38;11.85;;;14.30;99.90;;;14.03;100.00;97073.47;5011168;28;20040;-39
2023/09/16 04:07:47;;;;;;;16.42;11.95;;;14.30;99.90;;;14.06;100.00;97073.31;5011925;28;20037;-38
2023/09/16 04:10:13;;;;;;;15.80;12.27;;;14.30;99.90;;;14.08;100.00;97084.69;5004494;28;20033;-38
2023/09/16 04:12:38;;;;;;;16.83;11.65;;;14.30;99.90;;;14.07;100.00;97080.34;5011046;28;20048;-38
2023/09/16 04:15:05;;;;;;;17.08;11.77;;;14.30;99.90;;;14.06;100.00;97076.81;5008908;28;20037;-38
2023/09/16 04:17:32;;;;;;;15.45;12.27;;;14.30;99.90;;;14.01;100.00;97072.69;5009794;28;20047;-38
2023/09/16 04:19:58;;;;;;;16.45;12.00;;;14.30;99.90;;;14.09;100.00;97084.59;5010414;28;20356;-38
2023/09/16 04:22:24;;;;;;;16.45;12.65;;;14.30;99.90;;;14.09;100.00;97084.59;5016614;28;20029;-38
2023/09/16 04:24:49;;;;;;;17.05;12.82;;;14.30;99.90;;;14.10;100.00;97083.66;5009640;28;20029;-38
2023/09/16 04:27:15;;;;;;;15.95;12.45;;;14.30;99.90;;;14.11;100.00;97095.97;5009094;28;20504;-37
2023/09/16 04:29:41;;;;;;;15.77;12.82;;;14.30;99.90;;;14.09;100.00;97087.25;5007343;28;20037;-38
2023/09/16 04:32:06;;;;;;;15.90;11.98;;;14.30;99.90;;;14.08;100.00;97092.63;5008218;28;20072;-38
2023/09/16 04:34:33;;;;;;;15.75;12.48;;;14.30;99.90;;;14.05;100.00;97095.44;5008854;28;20049;-38
2023/09/16 04:36:59;;;;;;;16.50;12.57;;;14.30;99.90;;;14.03;100.00;97082.31;5012268;28;20397;-37
2023/09/16 04:39:26;;;;;;;16.48;12.32;;;14.20;99.90;;;13.99;100.00;97080.72;5011246;28;20474;-38
2023/09/16 04:41:54;;;;;;;15.52;12.10;;;14.20;99.90;;;13.97;100.00;97077.31;5011746;28;20072;-38
2023/09/16 04:44:21;;;;;;;15.90;12.57;;;14.20;99.90;;;13.93;100.00;97073.13;5008672;28;20032;-39
2023/09/16 04:46:46;;;;;;;15.60;11.88;;;14.20;99.90;;;13.91;100.00;97072.38;5004433;28;20041;-39
2023/09/16 04:49:12;;;;;;;15.15;11.68;;;14.10;99.90;;;13.86;100.00;97072.63;5008174;28;20602;-38
2023/09/16 04:51:38;;;;;;;16.13;12.32;;;14.10;99.90;;;13.87;100.00;97078.75;5009860;28;20045;-39
2023/09/16 04:54:05;;;;;;;17.20;12.50;;;14.10;99.90;;;13.84;100.00;97068.34;4989504;28;20061;-39
2023/09/16 04:56:31;;;;;;;19.38;12.40;;;14.00;99.90;;;13.80;100.00;97067.66;5002293;28;20037;-38
2023/09/16 04:58:57;;;;;;;16.20;12.25;;;14.00;99.90;;;13.83;100.00;97075.44;5004488;28;20041;-38
2023/09/16 05:01:26;;;;;;;17.40;11.85;;;14.10;99.90;;;13.83;100.00;97063.97;5010188;28;20473;-38
2023/09/16 05:03:51;;;;;;;15.48;11.82;;;14.00;99.90;;;13.83;100.00;97059.53;5010594;28;20155;-39
2023/09/16 05:06:17;;;;;;;15.48;12.40;;;14.00;99.90;;;13.84;100.00;97069.19;5011643;28;20041;-38
2023/09/16 05:08:43;;;;;;;16.30;12.27;;;14.10;99.90;;;13.85;100.00;97070.88;5013303;28;20041;-38
2023/09/16 05:11:09;;;;;;;16.10;12.02;;;14.00;99.90;;;13.71;100.00;97055.78;5010785;28;20036;-37
2023/09/16 05:13:35;;;;;;;17.75;12.30;;;14.10;99.90;;;13.86;100.00;97075.25;5012469;28;20030;-38
2023/09/16 05:16:01;;;;;;;15.23;12.15;;;14.10;99.90;;;13.80;100.00;97056.19;5007268;28;20037;-38
2023/09/16 05:18:26;;;;;;;15.95;12.57;;;14.10;99.90;;;13.85;100.00;97076.19;5005688;28;20116;-38
2023/09/16 05:20:52;;;;;;;14.73;11.55;;;14.10;99.90;;;13.86;100.00;97071.78;5013459;28;20026;-38
2023/09/16 05:23:18;;;;;;;16.00;11.98;;;14.10;99.90;;;13.86;100.00;97075.25;5009522;28;20389;-37
2023/09/16 05:25:51;;;;;;;15.90;12.35;;;14.10;99.90;;;13.88;100.00;97067.22;5009994;28;20435;-38
2023/09/16 05:28:17;;;;;;;17.88;12.70;;;14.10;99.90;;;13.88;100.00;97065.44;5011533;28;20033;-38
2023/09/16 05:30:44;;;;;;;15.70;11.98;;;14.10;99.90;;;13.89;100.00;97067.16;5009381;28;20030;-38
2023/09/16 05:33:11;;;;;;;16.40;12.48;;;14.10;99.90;;;13.90;100.00;97068.84;5010861;28;20172;-38
2023/09/16 05:35:41;;;;;;;18.85;12.45;;;14.10;99.90;;;13.91;100.00;97070.56;5013297;28;20032;-38
2023/09/16 05:38:07;;;;;;;15.02;12.23;;;14.10;99.90;;;13.93;100.00;97070.50;5004774;28;20029;-37
2023/09/16 05:40:38;;;;;;;15.93;11.55;;;14.10;99.90;;;13.96;100.00;97070.28;5010251;28;20026;-38
2023/09/16 05:43:03;;;;;;;16.98;12.88;;;14.20;99.90;;;13.93;100.00;97058.06;5011456;28;20029;-38
2023/09/16 05:45:30;;;;;;;16.48;11.85;;;14.20;99.90;;;14.02;100.00;97074.44;5009597;28;20046;-39
2023/09/16 05:47:56;;;;;;;14.32;11.77;;;14.30;99.90;;;14.08;100.00;97077.56;5003107;28;20041;-39
2023/09/16 05:50:22;;;;;;;16.90;11.70;;;14.30;99.90;;;14.12;100.00;97078.25;5005285;28;20029;-38
2023/09/16 05:52:48;;;;;;;16.65;11.57;;;14.30;99.90;;;14.09;100.00;97068.69;5006405;28;20037;-38
2023/09/16 05:55:14;;;;;;;16.77;12.40;;;14.40;99.90;;;14.17;100.00;97070.88;5003581;28;20065;-38
2023/09/16 05:57:40;;;;;;;15.45;11.77;;;14.50;99.90;;;14.28;100.00;97080.88;5006161;28;20141;-38
2023/09/16 06:00:07;;;;;;;15.07;11.75;;;14.50;99.90;;;14.30;100.00;97068.38;5001541;28;20025;-39
2023/09/16 06:02:38;;;;;;;15.93;11.85;;;14.50;99.90;;;14.39;100.00;97072.31;5005667;28;20104;-38
2023/09/16 06:05:08;;;;;;;14.57;11.35;;;14.60;99.90;;;14.48;100.00;97062.06;5004430;28;20068;-38
2023/09/16 06:07:41;;;;;;;16.92;12.77;;;14.70;99.90;;;14.59;100.00;97066.75;5006865;28;21025;-38
2023/09/16 06:10:08;;;;;;;18.65;13.07;;;14.80;99.90;;;14.60;100.00;97063.16;5003637;28;20029;-38
2023/09/16 06:12:34;;;;;;;15.02;11.95;;;14.90;99.90;;;14.70;100.00;97061.66;5007863;28;20041;-38
2023/09/16 06:15:00;;;;;;;16.45;12.45;;;15.00;99.90;;;14.83;100.00;97066.25;4996695;28;20030;-38
2023/09/16 06:17:25;;;;;;;16.17;11.75;;;15.10;99.90;;;14.93;100.00;97070.09;5000210;28;20049;-39
2023/09/16 06:19:54;;;;;;;21.23;13.10;;;15.20;99.90;;;15.05;100.00;97077.28;5009349;28;20286;-38
2023/09/16 06:22:21;;;;;;;18.90;12.45;;;15.30;99.90;;;15.10;100.00;97068.22;5013297;28;20091;-38
2023/09/16 06:24:47;;;;;;;19.08;12.18;;;15.40;99.90;;;15.26;100.00;97080.44;5006392;28;20026;-39
2023/09/16 06:27:14;;;;;;;15.80;11.93;;;15.50;99.90;;;15.33;100.00;97069.47;5004173;28;20087;-39
2023/09/16 06:29:41;;;;;;;15.85;12.30;;;15.60;99.90;;;15.41;100.00;97077.81;5011993;28;20054;-38
2023/09/16 06:32:07;;;;;;;15.93;12.85;;;15.70;99.90;;;15.46;100.00;97071.25;5010825;28;20096;-40
2023/09/16 06:34:33;;;;;;;16.05;12.50;;;15.70;99.90;;;15.57;100.00;97075.91;5016865;28;20041;-38
2023/09/16 06:37:00;;;;;;;17.58;12.73;;;15.80;99.90;;;15.58;100.00;97064.34;5012339;28;20520;-38
2023/09/16 06:39:26;;;;;;;19.17;13.48;;;15.90;99.90;;;15.72;100.00;97071.44;5006036;28;20038;-38
2023/09/16 06:41:52;;;;;;;17.80;12.15;;;16.00;99.90;;;15.84;100.00;97081.34;5002789;28;20496;-39
2023/09/16 06:44:17;;;;;;;21.27;15.82;;;16.10;99.90;;;15.90;100.00;97073.91;5010970;28;20108;-39
2023/09/16 06:46:45;;;;;;;21.63;15.70;;;16.20;99.90;;;15.87;100.00;97055.50;5013696;28;20045;-39
2023/09/16 06:49:10;;;;;;;18.27;14.20;;;16.30;99.90;;;16.07;100.00;97079.00;5009821;28;20042;-38
2023/09/16 06:51:36;;;;;;;22.30;14.98;;;16.30;99.90;;;16.18;100.00;97073.00;5006028;28;20033;-38
2023/09/16 06:54:02;;;;;;;16.75;12.30;;;16.40;99.90;;;16.28;100.00;97083.91;5011260;28;20037;-38
2023/09/16 06:56:29;;;;;;;20.73;15.15;;;16.50;99.90;;;16.35;100.00;97074.56;5008458;28;20144;-38
2023/09/16 06:58:56;;;;;;;17.85;13.10;;;16.60;99.90;;;16.45;100.00;97078.31;5014416;28;20052;-38
2023/09/16 07:01:23;;;;;;;17.52;13.07;;;16.70;99.90;;;16.54;100.00;97082.19;5011917;28;20784;-38
2023/09/16 07:03:49;;;;;;;15.88;11.93;;;16.80;99.90;;;16.58;100.00;97070.38;5009059;28;20168;-38
2023/09/16 07:06:14;;;;;;;15.82;12.20;;;16.90;99.90;;;16.69;100.00;97077.66;5010636;28;20029;-38
2023/09/16 07:08:40;;;;;;;15.50;12.68;;;16.90;99.90;;;16.74;100.00;97083.50;5014854;28;20033;-36
2023/09/16 07:11:06;;;;;;;16.77;11.50;;;17.00;99.90;;;16.83;100.00;97084.72;5011246;28;20481;-37
2023/09/16 07:13:31;;;;;;;17.75;12.63;;;17.10;99.90;;;16.92;100.00;97084.13;5008247;28;20127;-37
2023/09/16 07:15:57;;;;;;;13.40;12.00;;;17.20;99.90;;;17.02;100.00;97087.88;4994677;28;20044;-37
2023/09/16 07:18:23;;;;;;;18.02;11.40;;;17.30;99.90;;;17.11;100.00;97081.91;5007268;28;20038;-39
2023/09/16 07:20:49;;;;;;;25.17;15.07;;;17.40;99.90;;;17.09;100.00;97075.00;5011761;28;20033;-37
2023/09/16 07:23:15;;;;;;;15.27;12.20;;;17.40;99.90;;;17.27;100.00;97086.22;5007549;28;20096;-37
2023/09/16 07:25:41;;;;;;;16.77;12.05;;;17.50;99.90;;;17.38;100.00;97082.81;5006324;28;20231;-38
2023/09/16 07:28:07;;;;;;;17.20;11.32;;;17.60;99.90;;;17.42;100.00;97081.63;5006107;28;20091;-37
2023/09/16 07:30:34;;;;;;;13.00;10.18;;;17.70;99.90;;;17.54;100.00;97094.94;5006294;28;20084;-37
2023/09/16 07:33:00;;;;;;;16.88;12.25;;;17.80;99.90;;;17.62;100.00;97093.53;5005099;28;20559;-39
2023/09/16 07:35:26;;;;;;;13.10;10.77;;;17.80;99.90;;;17.73;100.00;97083.84;5006211;28;20091;-37
2023/09/16 07:37:52;;;;;;;13.77;9.95;;;18.00;99.90;;;17.84;100.00;97087.56;5008089;28;20069;-38
2023/09/16 07:40:18;;;;;;;13.45;10.50;;;18.00;99.90;;;17.93;100.00;97081.59;5009287;28;20589;-38
2023/09/16 07:42:44;;;;;;;15.38;11.50;;;18.10;99.90;;;17.99;100.00;97074.97;5009013;28;20050;-37
2023/09/16 07:45:10;;;;;;;15.05;11.38;;;18.20;99.90;;;18.05;100.00;97085.19;5006773;28;20021;-38
2023/09/16 07:47:35;;;;;;;13.60;11.02;;;18.20;99.90;;;18.11;100.00;97085.59;5008261;28;20057;-38
2023/09/16 07:50:02;;;;;;;14.13;11.77;;;18.30;99.90;;;18.18;100.00;97086.00;5008434;28;20171;-39
2023/09/16 07:52:29;;;;;;;14.40;10.95;;;18.40;99.90;;;18.28;100.00;97086.19;5005783;28;20037;-37
2023/09/16 07:54:59;;;;;;;14.93;10.85;;;18.50;99.90;;;18.37;100.00;97084.66;5003832;28;20447;-39
2023/09/16 07:57:25;;;;;;;14.25;10.48;;;18.50;99.90;;;18.48;100.00;97092.72;5002059;28;20055;-38
2023/09/16 07:59:51;;;;;;;14.98;10.07;;;18.60;99.90;;;18.44;100.00;97070.75;4996373;28;20112;-38
2023/09/16 08:02:17;;;;;;;13.20;9.68;;;18.80;99.90;;;18.70;100.00;97102.69;5001528;28;20610;-38
2023/09/16 08:04:43;;;;;;;11.88;9.65;;;18.90;99.90;;;18.83;100.00;97108.84;5003700;28;20026;-38
2023/09/16 08:07:08;;;;;;;13.20;9.65;;;18.90;99.90;;;18.97;100.00;97114.94;5001590;28;20161;-38
2023/09/16 08:09:34;;;;;;;10.60;8.05;;;19.10;99.90;;;19.10;100.00;97110.38;5005025;28;20447;-38
2023/09/16 08:12:00;;;;;;;10.13;9.10;;;19.20;99.90;;;19.25;100.00;97111.88;5008255;28;20596;-38
2023/09/16 08:14:25;;;;;;;12.80;8.85;;;19.40;99.90;;;19.38;100.00;97101.09;5011679;28;20485;-38
2023/09/16 08:16:52;;;;;;;11.05;8.70;;;19.50;99.90;;;19.53;100.00;97101.72;5000784;28;20505;-38
2023/09/16 08:19:19;;;;;;;9.95;8.10;;;19.60;99.90;;;19.69;100.00;97098.72;5004971;28;22324;-38
2023/09/16 08:21:45;;;;;;;9.85;8.20;;;19.80;99.90;;;19.87;100.00;97111.66;5008399;28;20026;-38
2023/09/16 08:24:11;;;;;;;8.48;7.18;;;19.90;99.90;;;20.02;100.00;97108.56;5004105;28;20599;-39
2023/09/16 08:26:36;;;;;;;10.32;7.53;;;20.00;99.90;;;20.23;100.00;97117.72;5006007;28;20064;-38
2023/09/16 08:29:02;;;;;;;10.45;8.63;;;20.20;99.90;;;20.36;100.00;97118.41;5008723;28;20033;-39
2023/09/16 08:31:46;;;;;;;10.65;8.13;;;20.40;99.90;;;20.46;100.00;97124.72;5016372;28;20025;-38
2023/09/16 08:34:12;;;;;;;11.02;7.53;;;20.40;99.90;;;20.54;100.00;97124.09;5008912;28;20076;-38
2023/09/16 08:36:37;;;;;;;11.93;8.90;;;20.50;99.90;;;20.63;100.00;97133.25;5009257;28;20464;-38
2023/09/16 08:39:03;;;;;;;13.07;8.75;;;20.70;99.90;;;20.74;100.00;97133.19;4999003;28;20037;-37
2023/09/16 08:41:44;;;;;;;8.88;7.25;;;20.80;99.90;;;20.86;100.00;97128.66;5006732;28;20029;-37
2023/09/16 08:44:14;;;;;;;10.50;8.77;;;20.80;99.90;;;20.83;100.00;97110.16;5004534;28;20065;-37
2023/09/16 08:46:45;;;;;;;10.00;7.25;;;20.90;99.90;;;21.02;100.00;97129.06;5011201;28;20065;-38
2023/09/16 08:49:14;;;;;;;8.00;6.88;;;21.00;99.90;;;21.12;100.00;97138.06;5011912;28;20045;-37
2023/09/16 08:51:45;;;;;;;9.93;7.15;;;21.10;99.90;;;21.13;100.00;97128.19;5005582;28;20060;-38
2023/09/16 08:54:12;;;;;;;9.40;8.18;;;21.10;99.90;;;21.22;100.00;97139.97;5001002;28;20503;-38
2023/09/16 08:56:39;;;;;;;8.15;6.55;;;21.20;99.90;;;21.25;100.00;97135.19;5013637;28;20076;-37
2023/09/16 08:59:05;;;;;;;10.75;8.18;;;21.20;99.90;;;21.36;100.00;97136.97;5002186;28;20112;-40
2023/09/16 09:01:32;;;;;;;11.45;8.10;;;21.30;99.90;;;21.38;100.00;97124.25;4996820;28;20462;-39
2023/09/16 09:03:59;;;;;;;9.15;7.50;;;21.40;99.90;;;21.51;100.00;97135.66;4992052;28;20033;-38
2023/09/16 09:06:26;;;;;;;10.77;7.32;;;21.50;99.90;;;21.63;100.00;97131.09;5006405;28;20765;-40
2023/09/16 09:08:52;;;;;;;10.35;7.68;;;21.60;99.90;;;21.74;100.00;97132.84;5010195;28;20049;-38
2023/09/16 09:11:19;;;;;;;8.80;7.35;;;21.60;99.90;;;21.82;100.00;97127.69;5005460;28;20099;-37
2023/09/16 09:13:49;;;;;;;10.63;7.50;;;21.80;99.90;;;21.93;100.00;97129.44;5008923;28;20041;-38
2023/09/16 09:16:17;;;;;;;10.20;6.70;;;21.90;99.90;;;22.07;100.00;97133.56;4999428;28;20021;-39
2023/09/16 09:21:36;;;;;;;;;;;22.20;99.90;;;22.33;100.00;97130.44;5026414;23;20049;-38
2023/09/16 09:24:02;;;;;;;7.43;6.20;;;22.30;99.90;;;22.41;100.00;97123.38;5013968;28;19978;-38
2023/09/16 09:26:27;;;;;;;7.40;6.40;;;22.40;99.90;;;22.52;100.00;97118.88;5006872;28;20033;-38
2023/09/16 09:28:53;;;;;;;8.00;6.03;;;22.40;99.90;;;22.55;100.00;97119.47;5027021;28;20037;-38
2023/09/16 09:31:19;;;;;;;9.32;5.80;;;22.50;99.90;;;22.56;100.00;97117.63;4997991;28;20848;-38
2023/09/16 09:33:48;;;;;;;11.35;7.28;;;22.50;99.90;;;22.60;100.00;97117.22;4997680;28;20394;-38
2023/09/16 09:36:18;;;;;;;10.43;6.80;;;22.60;99.90;;;22.61;100.00;97116.25;4996253;28;20044;-39
2023/09/16 09:38:46;;;;;;;8.35;6.95;;;22.60;99.90;;;22.65;100.00;97120.34;5006070;28;20504;-39
2023/09/16 09:41:12;;;;;;;6.53;5.82;;;22.60;99.90;;;22.76;100.00;97129.28;4993557;28;20037;-40
2023/09/16 09:43:38;;;;;;;6.43;5.68;;;22.70;99.90;;;22.82;100.00;97134.91;5003755;28;20489;-38
2023/09/16 09:46:04;;;;;;;8.65;6.28;;;22.80;99.90;;;22.83;100.00;97130.41;5001254;28;20040;-38
2023/09/16 09:48:32;;;;;;;7.93;6.28;;;22.80;99.90;;;22.86;100.00;97124.72;5004063;28;20033;-39
2023/09/16 09:50:59;;;;;;;6.03;5.13;;;22.80;99.90;;;22.87;100.00;97126.44;5009544;28;20421;-38
2023/09/16 09:53:26;;;;;;;6.95;6.22;;;22.80;99.90;;;22.84;100.00;97132.97;5001375;28;20033;-39
2023/09/16 09:55:53;;;;;;;6.53;5.82;;;22.80;99.90;;;22.80;100.00;97126.16;5000393;28;20037;-38
2023/09/16 09:58:19;;;;;;;6.63;5.18;;;22.80;99.90;;;22.86;100.00;97130.97;4989148;28;20028;-38
2023/09/16 10:00:47;;;;;;;6.60;4.95;;;22.80;99.90;;;22.91;100.00;97133.22;5006572;28;20033;-39
2023/09/16 10:03:14;;;;;;;5.93;5.07;;;22.80;99.90;;;22.87;100.00;97118.38;5001042;28;20084;-39